createdAt,value
2019-01-13T00:03:55.529Z,4.10
2019-01-13T00:14:01.171Z,4.20
2019-01-13T00:24:06.703Z,4.20
2019-01-13T00:34:12.095Z,4.30
2019-01-13T00:44:17.425Z,4.30
2019-01-13T00:54:22.744Z,4.20
2019-01-13T01:04:28.092Z,4.20
2019-01-13T01:14:33.387Z,4.20
2019-01-13T01:24:39.673Z,4.20
2019-01-13T01:34:45.343Z,4.10
2019-01-13T01:44:50.701Z,4.10
2019-01-13T01:54:56.147Z,4.00
2019-01-13T02:05:01.907Z,4.00
2019-01-13T02:15:09.452Z,4.00
2019-01-13T02:25:16.591Z,3.90
2019-01-13T02:35:21.979Z,3.90
2019-01-13T02:45:30.473Z,3.90
2019-01-13T02:55:35.952Z,3.90
2019-01-13T03:05:41.282Z,3.90
2019-01-13T03:15:46.657Z,3.90
2019-01-13T03:25:51.981Z,3.80
2019-01-13T03:35:57.316Z,3.80
2019-01-13T03:46:02.699Z,3.70
2019-01-13T03:56:08.010Z,3.70
2019-01-13T04:06:13.522Z,3.70
2019-01-13T04:16:19.196Z,3.70
2019-01-13T04:26:24.618Z,3.80
2019-01-13T04:36:30.029Z,3.70
2019-01-13T04:46:35.394Z,3.60
2019-01-13T04:56:40.808Z,3.60
2019-01-13T05:06:46.152Z,3.70
2019-01-13T05:16:51.583Z,3.80
2019-01-13T05:26:57.066Z,3.80
2019-01-13T05:37:02.377Z,4.00
2019-01-13T05:47:07.750Z,4.00
2019-01-13T05:57:13.534Z,4.00
2019-01-13T06:07:18.928Z,4.00
2019-01-13T06:17:24.331Z,4.10
2019-01-13T06:27:29.796Z,4.10
2019-01-13T06:37:35.153Z,4.20
2019-01-13T06:47:40.589Z,4.30
2019-01-13T06:57:45.965Z,4.20
2019-01-13T07:07:51.415Z,4.30
2019-01-13T07:17:56.819Z,4.30
2019-01-13T07:28:02.174Z,4.30
2019-01-13T07:38:07.579Z,4.40
2019-01-13T07:48:12.945Z,4.40
2019-01-13T07:58:18.322Z,4.40
2019-01-13T08:08:23.644Z,4.60
2019-01-13T08:18:29.045Z,4.50
2019-01-13T08:28:34.503Z,4.50
2019-01-13T08:38:39.793Z,4.60
2019-01-13T08:48:45.129Z,4.50
2019-01-13T08:58:50.416Z,4.60
2019-01-13T09:08:55.979Z,4.80
2019-01-13T09:19:01.653Z,5.00
2019-01-13T09:29:07.058Z,4.90
2019-01-13T09:39:12.479Z,5.00
2019-01-13T09:49:17.882Z,5.00
2019-01-13T09:59:23.438Z,5.00
2019-01-13T10:09:28.811Z,5.00
2019-01-13T10:19:34.188Z,5.00
2019-01-13T10:29:39.576Z,5.00
2019-01-13T10:39:44.962Z,5.10
2019-01-13T10:49:50.276Z,5.20
2019-01-13T10:59:55.639Z,5.20
2019-01-13T11:10:01.058Z,5.20
2019-01-13T11:20:11.075Z,5.20
2019-01-13T11:30:18.796Z,5.30
2019-01-13T11:40:29.452Z,5.30
2019-01-13T11:50:34.940Z,5.30
2019-01-13T12:00:47.728Z,5.30
2019-01-13T12:10:53.155Z,5.30
2019-01-13T12:20:58.751Z,5.30
2019-01-13T12:31:04.148Z,5.30
2019-01-13T12:41:09.609Z,5.30
2019-01-13T12:51:15.134Z,5.20
2019-01-13T13:01:20.596Z,5.20
2019-01-13T13:11:26.253Z,5.10
2019-01-13T13:21:31.652Z,5.10
2019-01-13T13:31:37.099Z,5.10
2019-01-13T13:41:42.674Z,5.10
2019-01-13T13:51:48.269Z,5.20
2019-01-13T14:01:53.865Z,5.20
2019-01-13T14:11:59.465Z,5.10
2019-01-13T14:22:05.378Z,5.20
2019-01-13T14:32:10.670Z,5.20
2019-01-13T14:42:16.089Z,5.00
2019-01-13T14:52:21.457Z,4.80
2019-01-13T15:02:26.919Z,4.90
2019-01-13T15:12:32.304Z,4.90
2019-01-13T15:22:37.686Z,4.80
2019-01-13T15:32:43.104Z,4.70
2019-01-13T15:42:48.566Z,4.70
2019-01-13T15:52:54.046Z,4.70
2019-01-13T16:02:59.439Z,4.70
2019-01-13T16:13:06.008Z,4.60
2019-01-13T16:23:11.578Z,4.50
2019-01-13T16:33:17.138Z,4.60
2019-01-13T16:43:23.914Z,4.60
2019-01-13T16:53:29.474Z,4.60
2019-01-13T17:03:36.035Z,4.70
2019-01-13T17:13:41.548Z,4.70
2019-01-13T17:23:47.048Z,4.70
2019-01-13T17:33:52.724Z,4.70
2019-01-13T17:43:58.190Z,4.60
2019-01-13T17:54:03.883Z,4.60
2019-01-13T18:04:09.375Z,4.60
2019-01-13T18:14:15.046Z,4.60
2019-01-13T18:24:20.604Z,4.50
2019-01-13T18:34:26.008Z,4.60
2019-01-13T18:44:31.458Z,4.50
2019-01-13T18:54:36.839Z,4.50
2019-01-13T19:04:42.324Z,4.40
2019-01-13T19:14:51.771Z,4.50
2019-01-13T19:24:59.974Z,4.50
2019-01-13T19:35:06.847Z,4.40
2019-01-13T19:45:13.749Z,4.30
2019-01-13T19:55:19.285Z,4.30
2019-01-13T20:05:24.739Z,4.30
2019-01-13T20:15:30.084Z,4.20
2019-01-13T20:25:35.585Z,4.20
2019-01-13T20:35:41.066Z,4.20
2019-01-13T20:45:46.571Z,4.10
2019-01-13T20:55:51.885Z,4.10
2019-01-13T21:05:57.250Z,4.00
2019-01-13T21:16:02.591Z,3.90
2019-01-13T21:26:08.249Z,3.80
2019-01-13T21:36:13.762Z,3.90
2019-01-13T21:46:19.331Z,3.80
2019-01-13T21:56:24.721Z,3.80
2019-01-13T22:06:31.028Z,3.70
2019-01-13T22:16:36.662Z,3.70
2019-01-13T22:26:42.026Z,3.70
2019-01-13T22:36:47.515Z,3.80
2019-01-13T22:46:53.088Z,3.90
2019-01-13T22:56:58.514Z,4.00
2019-01-13T23:07:04.080Z,4.10
2019-01-13T23:17:09.516Z,4.10
2019-01-13T23:27:14.880Z,4.20
2019-01-13T23:37:20.286Z,4.30
2019-01-13T23:47:25.774Z,4.40
2019-01-13T23:57:31.114Z,4.50
